createdAt,value
2023-01-26T00:00:40.872Z,126.30345
2023-01-26T00:05:42.522Z,111.56825
2023-01-26T00:10:44.215Z,97.386
2023-01-26T00:15:46.222Z,83.94795
2023-01-26T00:20:47.838Z,68.2354
2023-01-26T00:25:49.511Z,49.41305
2023-01-26T00:30:51.151Z,34.1177
2023-01-26T00:35:52.777Z,22.8681
2023-01-26T00:40:54.411Z,13.9422
2023-01-26T00:45:56.096Z,7.15555
2023-01-26T00:50:57.724Z,3.67
2023-01-26T00:55:59.427Z,2.3237
2023-01-26T01:01:01.207Z,0
2023-01-26T01:06:03.009Z,0
2023-01-26T01:11:05.083Z,0
2023-01-26T01:16:06.798Z,0
2023-01-26T01:21:08.594Z,0
2023-01-26T01:26:10.209Z,0
2023-01-26T01:31:11.977Z,0
2023-01-26T01:36:13.693Z,0
2023-01-26T01:41:15.322Z,0
2023-01-26T01:46:17.008Z,0
2023-01-26T01:51:18.680Z,0
2023-01-26T01:56:20.321Z,0
2023-01-26T02:01:22.076Z,0
2023-01-26T02:06:23.756Z,0
2023-01-26T02:11:25.399Z,0
2023-01-26T02:16:27.123Z,0
2023-01-26T02:21:28.799Z,0
2023-01-26T02:26:30.709Z,0
2023-01-26T02:31:32.422Z,0
2023-01-26T02:36:34.191Z,0
2023-01-26T02:41:35.950Z,0
2023-01-26T02:46:37.626Z,0
2023-01-26T02:51:39.238Z,0
2023-01-26T02:56:41.094Z,0
2023-01-26T03:01:42.746Z,0
2023-01-26T03:06:45.051Z,0
2023-01-26T03:11:46.672Z,0
2023-01-26T03:16:48.351Z,0
2023-01-26T03:21:49.994Z,0
2023-01-26T03:26:51.672Z,0
2023-01-26T03:31:53.339Z,0
2023-01-26T03:36:55.036Z,0
2023-01-26T03:41:56.708Z,0
2023-01-26T03:46:58.454Z,0
2023-01-26T03:52:00.146Z,0
2023-01-26T03:57:01.812Z,0
2023-01-26T04:02:03.613Z,0
2023-01-26T04:07:05.348Z,0
2023-01-26T04:12:06.965Z,0
2023-01-26T04:17:08.865Z,0
2023-01-26T04:22:11.822Z,0
2023-01-26T04:27:13.914Z,0
2023-01-26T04:32:15.703Z,0
2023-01-26T04:37:17.325Z,0
2023-01-26T04:42:19.459Z,0
2023-01-26T04:47:21.159Z,0
2023-01-26T04:52:22.953Z,0
2023-01-26T04:57:24.564Z,0
2023-01-26T05:02:26.203Z,0
2023-01-26T05:07:28.067Z,0
2023-01-26T05:12:29.776Z,0
2023-01-26T05:17:31.445Z,0
2023-01-26T05:22:33.280Z,0
2023-01-26T05:27:35.159Z,0
2023-01-26T05:32:37.742Z,0
2023-01-26T05:37:39.792Z,0
2023-01-26T05:42:41.488Z,0
2023-01-26T05:47:43.148Z,0
2023-01-26T05:52:44.759Z,0
2023-01-26T05:57:46.589Z,0
2023-01-26T06:02:49.082Z,0
2023-01-26T06:07:52.321Z,0
2023-01-26T06:12:54.082Z,0
2023-01-26T06:17:55.967Z,0
2023-01-26T06:22:57.639Z,0
2023-01-26T06:27:59.287Z,0
2023-01-26T06:33:01.157Z,0
2023-01-26T06:38:02.834Z,0
2023-01-26T06:43:04.518Z,0
2023-01-26T06:48:06.197Z,0
2023-01-26T06:53:08.084Z,0
2023-01-26T06:58:10.517Z,0
2023-01-26T07:03:12.319Z,0
2023-01-26T07:08:13.999Z,0
2023-01-26T07:13:15.667Z,0
2023-01-26T07:18:17.265Z,0
2023-01-26T07:23:18.894Z,0
2023-01-26T07:28:20.697Z,0
2023-01-26T07:33:22.348Z,0
2023-01-26T07:38:24.299Z,0
2023-01-26T07:43:26.052Z,0
2023-01-26T07:48:27.693Z,0
2023-01-26T07:53:29.379Z,0
2023-01-26T07:58:31.097Z,0
2023-01-26T08:03:32.718Z,0
2023-01-26T08:08:34.552Z,0
2023-01-26T08:13:36.444Z,0
2023-01-26T08:18:38.170Z,0
2023-01-26T08:23:39.837Z,0
2023-01-26T08:28:41.460Z,0
2023-01-26T08:33:43.158Z,0
2023-01-26T08:38:44.789Z,0
2023-01-26T08:43:46.308Z,0
2023-01-26T08:48:47.883Z,0
2023-01-26T08:53:49.501Z,0
2023-01-26T08:58:51.155Z,0
2023-01-26T09:03:52.790Z,0
2023-01-26T09:08:54.459Z,0
2023-01-26T09:13:56.029Z,0
2023-01-26T09:18:57.612Z,0
2023-01-26T09:23:59.331Z,0
2023-01-26T09:29:00.965Z,0
2023-01-26T09:34:02.657Z,0
2023-01-26T09:39:04.348Z,0
2023-01-26T09:44:05.955Z,0
2023-01-26T09:49:07.559Z,0
2023-01-26T09:54:09.190Z,0
2023-01-26T09:59:10.815Z,0
2023-01-26T10:04:12.499Z,0
2023-01-26T10:09:14.119Z,0
2023-01-26T10:14:15.961Z,0
2023-01-26T10:19:17.599Z,0
2023-01-26T10:24:19.226Z,0
2023-01-26T10:29:20.904Z,0
2023-01-26T10:34:22.694Z,0
2023-01-26T10:39:24.362Z,0
2023-01-26T10:44:25.977Z,0
2023-01-26T10:49:27.688Z,0
2023-01-26T10:54:29.354Z,0
2023-01-26T10:59:31.163Z,0
2023-01-26T11:04:32.836Z,0
2023-01-26T11:09:34.614Z,0
2023-01-26T11:14:36.216Z,0
2023-01-26T11:19:37.895Z,0
2023-01-26T11:24:42.413Z,0
2023-01-26T11:29:44.158Z,0
2023-01-26T11:34:45.771Z,0
2023-01-26T11:39:47.490Z,0
2023-01-26T11:44:49.158Z,0
2023-01-26T11:49:50.789Z,0
2023-01-26T11:54:52.481Z,0
2023-01-26T11:59:54.198Z,0
2023-01-26T12:04:55.854Z,0
2023-01-26T12:09:57.464Z,0
2023-01-26T12:14:59.159Z,0
2023-01-26T12:20:00.849Z,0
2023-01-26T12:25:28.647Z,0
2023-01-26T12:30:30.722Z,0
2023-01-26T12:35:32.578Z,0
2023-01-26T12:40:34.195Z,0
2023-01-26T12:45:35.985Z,0
2023-01-26T12:50:37.732Z,0
2023-01-26T12:55:39.356Z,0
2023-01-26T13:00:41.143Z,0
2023-01-26T13:05:42.782Z,0
2023-01-26T13:10:44.467Z,0
2023-01-26T13:15:46.273Z,0
2023-01-26T13:20:47.987Z,0
2023-01-26T13:25:56.409Z,0
2023-01-26T13:30:58.455Z,0
2023-01-26T13:36:00.150Z,0
2023-01-26T13:41:01.952Z,0
2023-01-26T13:46:03.604Z,0
2023-01-26T13:51:05.484Z,0
2023-01-26T13:56:07.375Z,0
2023-01-26T14:01:09.009Z,0
2023-01-26T14:06:10.719Z,0
2023-01-26T14:11:12.538Z,0
2023-01-26T14:16:14.307Z,0
2023-01-26T14:21:16.138Z,0
2023-01-26T14:26:17.929Z,0
2023-01-26T14:31:19.541Z,0
2023-01-26T14:36:21.147Z,0
2023-01-26T14:41:22.795Z,0
2023-01-26T14:46:24.540Z,0
2023-01-26T14:51:26.251Z,0
2023-01-26T14:56:27.877Z,0
2023-01-26T15:01:29.607Z,0
2023-01-26T15:06:31.219Z,0.88715
2023-01-26T15:11:33.084Z,2.32725
2023-01-26T15:16:34.824Z,3.48555
2023-01-26T15:21:36.633Z,7.9485
2023-01-26T15:26:38.237Z,9.11035
2023-01-26T15:31:39.848Z,9.6637
2023-01-26T15:36:41.699Z,20.9133
2023-01-26T15:41:43.324Z,31.73885
2023-01-26T15:46:44.987Z,51.06625
2023-01-26T15:51:46.692Z,69.78515
2023-01-26T15:56:48.299Z,91.43625
2023-01-26T16:01:50.052Z,102.0222
2023-01-26T16:06:51.737Z,116.7022
2023-01-26T16:11:53.385Z,144.7159
2023-01-26T16:16:55.020Z,178.53885
2023-01-26T16:21:56.645Z,194.0118
2023-01-26T16:26:58.340Z,230.9514
2023-01-26T16:32:00.004Z,269.127
2023-01-26T16:37:01.814Z,288.26995
2023-01-26T16:42:03.524Z,309.9762
2023-01-26T16:47:05.157Z,363.49545
2023-01-26T16:52:06.745Z,334.02515
2023-01-26T16:57:08.338Z,307.09915
2023-01-26T17:02:10.091Z,321.3361
2023-01-26T17:07:11.715Z,386.47385
2023-01-26T17:12:13.367Z,460.1876
2023-01-26T17:17:15.084Z,563.982
2023-01-26T17:22:16.672Z,574.4558
2023-01-26T17:27:18.283Z,810.53935
2023-01-26T17:32:19.989Z,1273.3908
2023-01-26T17:37:21.624Z,1255.463
2023-01-26T17:42:23.227Z,1316.9326
2023-01-26T17:47:24.861Z,1412.68535
2023-01-26T17:52:26.496Z,1566.47545
2023-01-26T17:57:28.169Z,1532.8921
2023-01-26T18:02:29.934Z,618.22005
2023-01-26T18:07:31.638Z,633.7653
2023-01-26T18:12:33.255Z,1571.3416
2023-01-26T18:17:34.854Z,1483.33575
2023-01-26T18:22:36.496Z,970.6142
2023-01-26T18:27:38.235Z,1765.88775
2023-01-26T18:32:39.905Z,792.62685
2023-01-26T18:37:41.524Z,708.4926
2023-01-26T18:42:43.232Z,1045.3605
2023-01-26T18:47:44.869Z,974.3945
2023-01-26T18:52:46.568Z,1014.8748
2023-01-26T18:57:48.188Z,1229.10195
2023-01-26T19:02:49.773Z,1306.04265
2023-01-26T19:07:51.634Z,1261.5786
2023-01-26T19:12:53.315Z,1345.1405
2023-01-26T19:17:54.928Z,1245.0351
2023-01-26T19:22:56.648Z,1131.54085
2023-01-26T19:27:58.258Z,988.00395
2023-01-26T19:32:59.907Z,957.832
2023-01-26T19:38:01.549Z,963.8257
2023-01-26T19:43:03.220Z,813.90905
2023-01-26T19:48:04.866Z,854.4825
2023-01-26T19:53:07.714Z,986.4732
2023-01-26T19:58:09.570Z,1055.8533
2023-01-26T20:03:11.256Z,1317.9749
2023-01-26T20:08:12.951Z,1356.85215
2023-01-26T20:13:14.759Z,1500.11145
2023-01-26T20:18:16.630Z,1546.0321
2023-01-26T20:23:18.275Z,1614.9863
2023-01-26T20:28:19.886Z,1722.89375
2023-01-26T20:33:21.477Z,1584.74575
2023-01-26T20:38:23.109Z,1661.6123
2023-01-26T20:43:24.835Z,1770.385
2023-01-26T20:48:26.473Z,1537.65955
2023-01-26T20:53:28.172Z,1633.4693
2023-01-26T20:58:29.816Z,1809.53615
2023-01-26T21:03:31.459Z,1702.6821
2023-01-26T21:08:33.102Z,1353.69565
2023-01-26T21:13:34.794Z,1592.72855
2023-01-26T21:18:36.503Z,1430.60205
2023-01-26T21:23:38.325Z,1604.8471
2023-01-26T21:28:40.002Z,1760.09565
2023-01-26T21:33:41.649Z,1206.88035
2023-01-26T21:38:43.309Z,822.76265
2023-01-26T21:43:45.001Z,661.9463
2023-01-26T21:48:46.659Z,649.14695
2023-01-26T21:53:48.321Z,757.256
2023-01-26T21:58:49.957Z,766.1819
2023-01-26T22:03:51.671Z,611.4144
2023-01-26T22:08:53.521Z,600.58885
2023-01-26T22:13:55.189Z,673.98885
2023-01-26T22:18:56.947Z,821.9887
2023-01-26T22:23:58.655Z,973.3675
2023-01-26T22:29:00.310Z,708.77575
2023-01-26T22:34:02.010Z,550.26225
2023-01-26T22:39:03.715Z,557.1972
2023-01-26T22:44:05.338Z,401.7642
2023-01-26T22:49:07.077Z,306.47165
2023-01-26T22:54:08.806Z,311.35865
2023-01-26T22:59:10.531Z,310.1968
2023-01-26T23:04:12.229Z,342.80275
2023-01-26T23:09:13.975Z,312.96355
2023-01-26T23:14:15.737Z,264.88465
2023-01-26T23:19:17.383Z,258.78065
2023-01-26T23:24:19.144Z,244.83845
2023-01-26T23:29:20.866Z,247.16215
2023-01-26T23:34:22.510Z,225.51105
2023-01-26T23:39:24.173Z,216.34555
2023-01-26T23:44:25.870Z,196.5941
2023-01-26T23:49:27.509Z,173.04335
2023-01-26T23:54:29.102Z,149.30815
2023-01-26T23:59:30.750Z,126.91925
